Time;durP1;ratioP1;P1;durP2;ratioP2;P2;SDS_P1;SDS_P2;PMS_P1;PMS_P2;Temp;Humidity;BMP_temperature;BMP_pressure;BME280_temperature;BME280_humidity;BME280_pressure;Samples;Min_cycle;Max_cycle;Signal;HPM_P1;HPM_P2
2022/04/28 00:01:04;;;;;;;13.20;8.07;;;;;;;8.09;100.00;99385.97;5048394;28;20024;-64
2022/04/28 00:03:30;;;;;;;18.97;9.43;;;;;;;8.11;100.00;99371.47;5048848;28;20068;-63
2022/04/28 00:05:57;;;;;;;17.67;10.57;;;;;;;8.15;100.00;99377.44;5046183;28;20031;-63
2022/04/28 00:08:23;;;;;;;23.27;12.23;;;;;;;8.09;100.00;99360.41;5044952;28;20584;-63
2022/04/28 00:10:48;;;;;;;14.40;7.93;;;;;;;8.10;100.00;99368.94;5046574;28;20373;-63
2022/04/28 00:13:14;;;;;;;16.27;10.10;;;;;;;8.11;100.00;99376.59;5048821;28;20036;-63
2022/04/28 00:15:40;;;;;;;20.03;10.50;;;;;;;7.94;100.00;99365.47;5045135;28;20099;-62
2022/04/28 00:18:06;;;;;;;14.00;9.20;;;;;;;7.98;100.00;99382.50;5045570;28;20115;-65
2022/04/28 00:20:31;;;;;;;16.60;9.97;;;;;;;7.85;100.00;99362.88;5048428;28;20049;-62
2022/04/28 00:22:57;;;;;;;16.33;10.73;;;;;;;7.82;100.00;99371.38;5048894;28;20035;-63
2022/04/28 00:25:23;;;;;;;20.63;11.53;;;;;;;7.90;100.00;99380.75;5044077;28;20028;-63
2022/04/28 00:27:50;;;;;;;14.13;8.73;;;;;;;7.87;100.00;99379.06;5046116;28;20063;-64
2022/04/28 00:30:16;;;;;;;19.23;11.03;;;;;;;7.81;100.00;99364.56;5048762;28;20048;-63
2022/04/28 00:32:41;;;;;;;18.03;11.20;;;;;;;7.85;100.00;99382.47;5045724;28;20378;-63
2022/04/28 00:35:07;;;;;;;19.07;10.33;;;;;;;7.81;100.00;99369.66;5041883;28;20160;-63
2022/04/28 00:37:33;;;;;;;15.50;9.93;;;;;;;7.82;100.00;99383.28;5043455;28;20036;-62
2022/04/28 00:39:58;;;;;;;16.43;10.37;;;;;;;7.73;100.00;99381.56;5045289;28;20041;-63
2022/04/28 00:42:24;;;;;;;20.00;11.07;;;;;;;7.67;100.00;99368.78;5044630;28;20025;-62
2022/04/28 00:44:49;;;;;;;20.60;11.80;;;;;;;7.66;100.00;99379.84;5040951;28;20051;-63
2022/04/28 00:47:15;;;;;;;15.77;10.10;;;;;;;7.64;100.00;99371.31;5043065;28;20036;-63
2022/04/28 00:52:27;;;;;;;20.43;11.53;;;;;;;7.69;100.00;99381.53;5043284;28;20039;-64
2022/04/28 00:54:54;;;;;;;20.00;12.03;;;;;;;7.61;100.00;99368.75;5041239;28;20546;-63
2022/04/28 00:57:20;;;;;;;17.57;10.47;;;;;;;7.60;100.00;99377.22;5043928;28;20080;-63
2022/04/28 00:59:48;;;;;;;15.80;9.63;;;;;;;7.52;100.00;99363.59;5044462;28;20036;-63
2022/04/28 01:02:16;;;;;;;23.10;12.03;;;;;;;7.60;100.00;99376.38;5042563;28;20032;-63
2022/04/28 01:04:42;;;;;;;18.27;11.73;;;;;;;7.49;100.00;99376.34;5039805;28;20032;-64
2022/04/28 01:07:07;;;;;;;18.37;11.33;;;;;;;7.55;100.00;99398.50;5045292;28;20032;-64
2022/04/28 01:09:39;;;;;;;18.53;11.30;;;;;;;7.41;100.00;99375.44;5045005;28;20498;-64
2022/04/28 01:12:15;;;;;;;22.47;11.87;;;;;;;7.55;100.00;99388.28;5041457;28;20071;-64
2022/04/28 01:14:45;;;;;;;18.47;10.47;;;;;;;7.46;100.00;99388.22;5041295;28;20272;-63
2022/04/28 01:17:12;;;;;;;16.53;10.97;;;;;;;7.48;100.00;99379.72;5044843;28;20036;-63
2022/04/28 01:19:38;;;;;;;26.27;13.37;;;;;;;7.47;100.00;99388.22;5043639;28;20037;-63
2022/04/28 01:22:05;;;;;;;20.47;12.93;;;;;;;7.42;100.00;99392.47;5041391;28;20059;-63
2022/04/28 01:24:31;;;;;;;16.23;11.37;;;;;;;7.40;100.00;99385.63;5042134;28;20655;-64
2022/04/28 01:26:59;;;;;;;18.03;10.20;;;;;;;7.36;100.00;99384.78;5044947;28;20029;-62
2022/04/28 01:29:24;;;;;;;22.83;14.43;;;;;;;7.32;100.00;99388.16;5042244;28;20083;-63
2022/04/28 01:31:50;;;;;;;23.77;19.20;;;;;;;7.29;100.00;99388.13;5041024;28;20467;-63
2022/04/28 01:34:16;;;;;;;18.63;12.60;;;;;;;7.27;100.00;99387.25;5042863;28;20103;-63
2022/04/28 01:36:41;;;;;;;17.27;11.53;;;;;;;7.28;100.00;99383.88;5045681;28;20020;-63
2022/04/28 01:39:08;;;;;;;19.27;12.03;;;;;;;7.29;100.00;99391.53;5041541;28;20379;-64
2022/04/28 01:41:33;;;;;;;22.90;14.20;;;;;;;7.27;100.00;99388.13;5040125;28;20160;-63
2022/04/28 01:43:59;;;;;;;17.30;11.80;;;;;;;7.23;100.00;99373.63;5041683;28;20032;-64
2022/04/28 01:46:24;;;;;;;18.63;13.70;;;;;;;7.28;100.00;99387.28;5044253;28;20025;-65
2022/04/28 01:48:50;;;;;;;23.63;14.57;;;;;;;7.24;100.00;99388.09;5040290;28;20055;-64
2022/04/28 01:56:43;;;;;;;17.47;10.90;;;;;;;7.19;100.00;99378.72;5043701;28;20091;-63
2022/04/28 01:59:08;;;;;;;21.87;12.80;;;;;;;7.05;100.00;99386.25;5039897;28;20472;-62
2022/04/28 02:01:34;;;;;;;16.63;10.47;;;;;;;7.20;100.00;99381.28;5041113;28;20040;-63
2022/04/28 02:03:59;;;;;;;15.27;10.83;;;;;;;7.24;100.00;99370.25;5043795;28;20527;-68
2022/04/28 02:06:25;;;;;;;22.77;12.67;;;;;;;7.34;100.00;99392.41;5042922;28;20751;-64
2022/04/28 02:08:51;;;;;;;22.27;14.37;;;;;;;7.32;100.00;99385.59;5020885;28;20450;-64
2022/04/28 02:11:16;;;;;;;18.20;11.87;;;;;;;7.33;100.00;99382.22;5040976;28;20232;-63
2022/04/28 02:13:42;;;;;;;19.03;11.83;;;;;;;7.28;100.00;99378.78;5043995;28;20033;-62
2022/04/28 02:16:09;;;;;;;20.33;12.30;;;;;;;7.30;100.00;99377.94;5042377;28;20104;-62
2022/04/28 02:18:34;;;;;;;23.20;12.97;;;;;;;7.22;100.00;99363.41;5038627;28;20399;-63
2022/04/28 02:21:00;;;;;;;18.57;11.40;;;;;;;7.34;100.00;99369.44;5041802;28;20029;-62
2022/04/28 02:23:25;;;;;;;20.90;11.27;;;;;;;7.29;100.00;99386.44;5043652;28;20064;-63
2022/04/28 02:25:50;;;;;;;20.97;12.93;;;;;;;7.18;100.00;99370.19;5041240;28;20041;-63
2022/04/28 02:28:16;;;;;;;19.03;10.70;;;;;;;7.25;100.00;99376.22;5039089;28;20029;-63
2022/04/28 02:30:41;;;;;;;16.20;9.10;;;;;;;7.23;100.00;99375.34;5042101;28;20033;-63
2022/04/28 02:33:10;;;;;;;17.83;9.70;;;;;;;7.14;100.00;99360.81;5043477;28;20124;-62
2022/04/28 02:35:37;;;;;;;23.33;14.13;;;;;;;7.13;100.00;99363.38;5041219;28;20235;-63
2022/04/28 02:38:03;;;;;;;20.07;12.37;;;;;;;7.17;100.00;99365.13;5039437;28;20025;-64
2022/04/28 02:40:28;;;;;;;15.07;9.57;;;;;;;7.09;100.00;99364.19;5042400;28;20044;-64
2022/04/28 02:42:53;;;;;;;19.37;11.97;;;;;;;7.11;100.00;99358.28;5043143;28;20040;-64
2022/04/28 02:45:19;;;;;;;25.77;14.27;;;;;;;7.06;100.00;99365.03;5040162;28;20036;-64
2022/04/28 02:47:45;;;;;;;21.97;14.63;;;;;;;7.08;100.00;99371.00;5039693;28;20103;-62
2022/04/28 02:50:11;;;;;;;18.83;12.13;;;;;;;7.14;100.00;99383.78;5042375;28;20048;-63
2022/04/28 02:52:40;;;;;;;16.23;10.07;;;;;;;7.12;100.00;99370.19;5043203;28;20311;-63
2022/04/28 02:55:09;;;;;;;20.20;11.97;;;;;;;7.17;100.00;99381.25;5038643;28;20159;-63
2022/04/28 02:57:35;;;;;;;19.07;11.73;;;;;;;7.23;100.00;99385.53;5039754;28;20169;-63
2022/04/28 03:00:04;;;;;;;18.10;11.83;;;;;;;7.25;100.00;99381.31;5042329;28;20418;-63
2022/04/28 03:02:30;;;;;;;16.70;11.10;;;;;;;7.14;100.00;99372.72;5041728;28;20380;-62
2022/04/28 03:04:56;;;;;;;21.30;13.40;;;;;;;7.26;100.00;99385.53;5039150;28;20028;-62
2022/04/28 03:12:51;;;;;;;22.67;13.83;;;;;;;7.20;100.00;99371.09;5041578;28;20052;-62
2022/04/28 03:15:17;;;;;;;23.57;15.03;;;;;;;7.24;100.00;99384.69;5032852;28;20056;-64
2022/04/28 03:17:42;;;;;;;19.67;13.13;;;;;;;7.18;100.00;99372.75;5042967;28;20044;-64
2022/04/28 03:20:08;;;;;;;20.07;13.33;;;;;;;7.24;100.00;99388.09;5043830;28;20484;-64
2022/04/28 03:22:36;;;;;;;20.07;12.30;;;;;;;7.26;100.00;99391.50;5042708;28;20611;-65
2022/04/28 03:25:04;;;;;;;26.53;15.87;;;;;;;7.23;100.00;99371.09;5040796;28;20464;-64
2022/04/28 03:27:33;;;;;;;19.67;10.63;;;;;;;7.15;100.00;99376.97;5042953;28;20044;-64
2022/04/28 03:29:58;;;;;;;16.57;12.23;;;;;;;7.25;100.00;99394.06;5042655;28;20037;-62
2022/04/28 03:32:23;;;;;;;24.60;14.50;;;;;;;7.11;100.00;99367.63;5040113;28;20067;-64
2022/04/28 03:34:49;;;;;;;22.73;14.77;;;;;;;7.04;100.00;99371.81;5038950;28;20029;-62
2022/04/28 03:37:15;;;;;;;21.83;15.87;;;;;;;7.20;100.00;99386.38;5042757;28;20410;-62
2022/04/28 03:39:41;;;;;;;18.17;11.87;;;;;;;7.19;100.00;99396.56;5042009;28;20037;-63
2022/04/28 03:42:07;;;;;;;24.03;12.90;;;;;;;6.98;100.00;99381.09;5038332;28;20028;-62
2022/04/28 03:44:34;;;;;;;18.70;12.73;;;;;;;7.12;100.00;99405.03;5038737;28;20478;-63
2022/04/28 03:47:00;;;;;;;20.27;13.97;;;;;;;7.05;100.00;99400.69;5042570;28;20029;-63
2022/04/28 03:49:26;;;;;;;19.50;10.87;;;;;;;6.96;100.00;99390.47;5042365;28;20037;-62
2022/04/28 03:51:52;;;;;;;22.23;15.60;;;;;;;7.00;100.00;99408.31;5039103;28;20029;-65
2022/04/28 03:54:17;;;;;;;16.37;13.27;;;;;;;7.03;100.00;99405.81;5040539;28;20372;-62
2022/04/28 03:56:42;;;;;;;19.83;13.30;;;;;;;6.99;100.00;99409.19;5043600;28;20037;-63
2022/04/28 03:59:09;;;;;;;24.60;19.20;;;;;;;6.99;100.00;99410.88;5043646;28;20099;-63
2022/04/28 04:01:34;;;;;;;24.40;15.93;;;;;;;7.01;100.00;99411.72;5039709;28;20037;-63
2022/04/28 04:04:00;;;;;;;25.17;18.40;;;;;;;6.99;100.00;99393.88;5041740;28;20035;-65
2022/04/28 04:06:26;;;;;;;20.47;14.97;;;;;;;7.03;100.00;99385.41;5044473;28;20511;-61
2022/04/28 04:08:52;;;;;;;27.90;20.97;;;;;;;7.14;100.00;99400.78;5043766;28;20033;-62
2022/04/28 04:11:17;;;;;;;25.03;21.43;;;;;;;7.20;100.00;99408.47;5042689;28;20032;-63
2022/04/28 04:13:43;;;;;;;24.00;19.13;;;;;;;7.30;100.00;99418.72;5043760;28;20043;-62
2022/04/28 04:16:10;;;;;;;19.83;14.83;;;;;;;7.37;100.00;99416.22;5045658;28;20501;-63
2022/04/28 04:18:35;;;;;;;22.50;16.37;;;;;;;7.45;100.00;99417.13;5043641;28;20033;-62
2022/04/28 04:21:01;;;;;;;21.23;13.40;;;;;;;7.53;100.00;99421.44;5042937;28;20499;-62
2022/04/28 04:23:26;;;;;;;18.90;14.17;;;;;;;7.62;100.00;99428.28;5044281;28;20029;-64
2022/04/28 04:25:52;;;;;;;19.90;14.63;;;;;;;7.69;100.00;99422.38;5043665;28;20147;-64
2022/04/28 04:28:17;;;;;;;24.40;16.70;;;;;;;7.65;100.00;99405.34;5043887;28;20164;-68
2022/04/28 04:33:27;;;;;;;28.20;16.03;;;;;;;7.83;100.00;99438.63;5045482;28;20063;-66
2022/04/28 04:35:53;;;;;;;20.53;14.13;;;;;;;7.76;100.00;99409.66;5046050;28;20467;-66
2022/04/28 04:38:19;;;;;;;22.77;14.37;;;;;;;7.85;100.00;99419.03;5041493;28;20660;-66
2022/04/28 04:40:44;;;;;;;21.43;13.90;;;;;;;8.01;100.00;99425.06;5041471;28;20079;-65
2022/04/28 04:43:13;;;;;;;20.07;13.93;;;;;;;7.98;100.00;99428.44;5045474;28;20083;-66
2022/04/28 04:45:42;;;;;;;22.40;14.97;;;;;;;8.02;100.00;99431.91;5044600;28;20036;-66
2022/04/28 04:48:09;;;;;;;23.63;15.03;;;;;;;8.13;100.00;99436.19;5041280;28;20059;-66
2022/04/28 04:50:35;;;;;;;23.10;13.23;;;;;;;8.23;100.00;99432.81;5042259;28;20033;-66
2022/04/28 04:53:01;;;;;;;18.20;10.67;;;;;;;8.26;100.00;99442.19;5045545;28;20107;-66
2022/04/28 04:55:26;;;;;;;33.73;20.83;;;;;;;8.36;100.00;99443.13;5044120;28;20036;-65
2022/04/28 04:57:52;;;;;;;30.13;17.67;;;;;;;8.38;100.00;99431.19;5039785;28;20064;-67
2022/04/28 05:00:17;;;;;;;20.27;13.40;;;;;;;8.37;100.00;99414.13;5042144;28;20068;-66
2022/04/28 05:02:43;;;;;;;21.67;15.67;;;;;;;8.58;100.00;99432.94;5046165;28;20045;-66
2022/04/28 05:05:09;;;;;;;22.90;18.03;;;;;;;8.60;100.00;99444.03;5044708;28;20067;-65
2022/04/28 05:07:34;;;;;;;26.60;18.13;;;;;;;8.62;100.00;99434.63;5041283;28;20456;-67
2022/04/28 05:10:00;;;;;;;19.47;15.00;;;;;;;8.61;100.00;99442.31;5043336;28;20086;-60
2022/04/28 05:12:25;;;;;;;21.03;16.40;;;;;;;8.66;100.00;99443.16;5045303;28;20110;-67
2022/04/28 05:14:51;;;;;;;25.00;17.83;;;;;;;8.55;100.00;99420.16;5042729;28;20059;-67
2022/04/28 05:17:16;;;;;;;22.47;16.63;;;;;;;8.81;100.00;99448.31;5041133;28;20550;-67
2022/04/28 05:19:42;;;;;;;20.70;18.80;;;;;;;8.82;100.00;99438.94;5043084;28;20127;-68
2022/04/28 05:22:07;;;;;;;25.13;22.77;;;;;;;8.86;100.00;99428.72;5045333;28;20120;-67
2022/04/28 05:24:33;;;;;;;23.67;18.93;;;;;;;9.07;100.00;99446.63;5043884;28;20025;-67
2022/04/28 05:26:59;;;;;;;25.63;21.17;;;;;;;9.10;100.00;99449.19;5041021;28;20426;-67
2022/04/28 05:29:24;;;;;;;20.73;13.90;;;;;;;9.09;100.00;99439.78;5040916;28;20462;-68
2022/04/28 05:31:49;;;;;;;19.43;12.27;;;;;;;9.19;100.00;99458.56;5045464;28;20033;-68
2022/04/28 05:34:15;;;;;;;19.07;14.17;;;;;;;9.25;100.00;99450.03;5042205;28;20106;-65
2022/04/28 05:36:43;;;;;;;23.93;18.40;;;;;;;9.34;100.00;99463.66;5040977;28;20037;-65
2022/04/28 05:39:08;;;;;;;21.20;15.43;;;;;;;9.40;100.00;99450.00;5043365;28;20030;-66
2022/04/28 05:41:35;;;;;;;22.80;20.57;;;;;;;9.62;100.00;99465.34;5045218;28;20078;-66
2022/04/28 05:46:44;;;;;;;38.92;35.90;;;;;;;9.66;100.00;99448.25;5040840;28;20098;-66
2022/04/28 05:49:10;;;;;;;59.50;55.85;;;;;;;9.86;100.00;99450.75;5044334;28;20112;-64
2022/04/28 05:51:35;;;;;;;32.78;29.90;;;;;;;9.95;100.00;99459.28;5044371;28;20481;-66
2022/04/28 05:54:01;;;;;;;71.28;66.72;;;;;;;10.13;100.00;99466.06;5039730;28;20033;-64
2022/04/28 05:56:26;;;;;;;68.68;64.60;;;;;;;10.19;100.00;99462.63;5040718;28;20485;-65
2022/04/28 05:58:52;;;;;;;92.38;87.18;;;;;;;10.29;100.00;99456.63;5042278;28;20485;-64
2022/04/28 06:01:18;;;;;;;37.25;34.15;;;;;;;10.40;100.00;99457.41;5042623;28;20041;-63
2022/04/28 06:03:44;;;;;;;74.40;69.10;;;;;;;10.52;100.00;99468.44;5039755;28;20033;-62
2022/04/28 06:06:09;;;;;;;51.40;47.75;;;;;;;10.58;100.00;99453.88;5041638;28;20041;-63
2022/04/28 06:08:35;;;;;;;17.20;14.85;;;;;;;10.62;100.00;99448.72;5044801;28;20534;-64
2022/04/28 06:11:01;;;;;;;20.60;16.13;;;;;;;10.60;100.00;99432.53;5042653;28;20081;-63
2022/04/28 06:13:27;;;;;;;20.92;18.80;;;;;;;10.84;100.00;99445.19;5039835;28;20136;-63
2022/04/28 06:15:52;;;;;;;37.78;35.03;;;;;;;10.83;100.00;99445.19;5041808;28;20052;-63
2022/04/28 06:18:18;;;;;;;26.50;24.15;;;;;;;10.97;100.00;99459.63;5043931;28;20040;-65
2022/04/28 06:20:44;;;;;;;23.05;20.92;;;;;;;10.87;100.00;99473.38;5056386;28;20021;-64
2022/04/28 06:23:11;;;;;;;33.70;30.58;;;;;;;11.12;100.00;99471.47;5040453;28;20032;-64
2022/04/28 06:25:36;;;;;;;31.77;29.08;;;;;;;11.17;100.00;99474.84;5041410;28;20037;-65
2022/04/28 06:28:02;;;;;;;21.30;17.85;;;;;;;11.36;100.00;99471.28;5043192;28;20087;-64
2022/04/28 06:30:27;;;;;;;17.73;12.63;;;;;;;11.40;100.00;99467.81;5039286;28;20379;-63
2022/04/28 06:32:53;;;;;;;21.45;16.35;;;;;;;11.50;100.00;99478.84;5039348;28;20570;-65
2022/04/28 06:35:18;;;;;;;15.52;10.80;;;;;;;11.58;100.00;99474.53;5041534;28;20033;-62
2022/04/28 06:37:43;;;;;;;16.95;11.90;;;;;;;11.65;100.00;99478.72;5042302;28;20051;-65
2022/04/28 06:40:12;;;;;;;21.25;13.60;;;;;;;11.65;100.00;99486.44;5039993;28;20462;-64
2022/04/28 06:42:41;;;;;;;19.15;13.45;;;;;;;11.83;100.00;99475.16;5038982;28;20027;-64
2022/04/28 06:45:07;;;;;;;16.67;11.20;;;;;;;12.00;100.00;99482.69;5042769;28;20061;-64
2022/04/28 06:47:33;;;;;;;20.27;13.75;;;;;;;12.07;100.00;99471.44;5041484;28;20039;-65
2022/04/28 06:49:59;;;;;;;20.73;11.57;;;;;;;12.28;100.00;99482.34;5038823;28;20036;-64
2022/04/28 06:52:24;;;;;;;18.95;12.10;;;;;;;12.42;100.00;99481.31;5039121;28;20549;-64
2022/04/28 06:54:50;;;;;;;15.95;12.55;;;;;;;12.48;100.00;99466.63;5042257;28;20866;-65
2022/04/28 06:57:16;;;;;;;19.35;11.90;;;;;;;12.74;100.00;99485.16;5041445;28;20506;-64
2022/04/28 06:59:41;;;;;;;19.75;12.90;;;;;;;12.79;99.20;99473.06;5038057;28;20037;-63
2022/04/28 07:02:08;;;;;;;17.60;11.85;;;;;;;13.05;94.34;99484.69;5040065;28;20580;-70
2022/04/28 07:04:34;;;;;;;17.63;11.57;;;;;;;13.42;94.50;99480.69;5042266;28;20540;-68
2022/04/28 07:06:59;;;;;;;18.65;10.95;;;;;;;13.73;88.55;99483.59;5041274;28;20025;-70
2022/04/28 07:09:24;;;;;;;24.67;21.30;;;;;;;13.80;73.07;99481.75;5038848;28;20032;-69
2022/04/28 07:11:50;;;;;;;20.65;12.45;;;;;;;13.78;72.48;99483.50;5038738;28;20497;-69
2022/04/28 07:14:16;;;;;;;18.45;12.57;;;;;;;13.92;66.56;99499.59;5041197;28;20037;-63
2022/04/28 07:16:42;;;;;;;16.45;9.98;;;;;;;13.71;68.17;99500.78;5041130;28;20434;-64
2022/04/28 07:19:08;;;;;;;19.77;10.50;;;;;;;13.58;71.79;99487.28;5037760;28;20104;-67
2022/04/28 07:21:34;;;;;;;16.30;10.45;;;;;;;13.45;67.76;99470.31;5041525;28;20460;-67
2022/04/28 07:24:00;;;;;;;19.52;10.57;;;;;;;13.45;66.50;99488.34;5041540;28;20471;-67
2022/04/28 07:26:26;;;;;;;17.05;10.25;;;;;;;13.40;68.14;99499.63;5041033;28;20029;-67
2022/04/28 07:28:51;;;;;;;21.05;11.20;;;;;;;13.08;67.65;99485.50;5038963;28;20037;-69
2022/04/28 07:31:17;;;;;;;14.05;9.38;;;;;;;13.24;71.79;99493.84;5041171;28;20044;-68
2022/04/28 07:33:42;;;;;;;17.05;10.50;;;;;;;13.25;72.05;99499.00;5041701;28;20041;-67
2022/04/28 07:36:08;;;;;;;18.40;13.15;;;;;;;13.39;74.29;99503.94;5039757;28;20491;-65
2022/04/28 07:38:33;;;;;;;16.40;10.70;;;;;;;13.31;73.45;99495.47;5038712;28;20388;-66
2022/04/28 07:41:01;;;;;;;22.55;13.82;;;;;;;13.49;74.78;99517.53;5040949;28;20454;-66
2022/04/28 07:43:26;;;;;;;15.98;9.65;;;;;;;13.35;71.37;99515.16;5046439;28;20037;-67
2022/04/28 07:45:52;;;;;;;15.43;11.75;;;;;;;13.31;70.63;99492.91;5042923;28;20029;-68
2022/04/28 07:48:17;;;;;;;19.23;12.57;;;;;;;13.47;67.27;99503.81;5042531;28;20468;-65
2022/04/28 07:50:42;;;;;;;18.10;15.15;;;;;;;13.77;68.06;99511.00;5045627;28;20041;-67
2022/04/28 07:53:08;;;;;;;20.58;18.58;;;;;;;13.96;66.92;99514.13;5044538;28;20037;-67
2022/04/28 07:55:33;;;;;;;17.98;11.32;;;;;;;14.01;65.55;99504.53;5041658;28;20037;-68
2022/04/28 07:57:59;;;;;;;18.77;14.32;;;;;;;14.14;67.21;99513.75;5034413;28;20459;-65
2022/04/28 08:00:24;;;;;;;17.65;10.90;;;;;;;14.01;67.18;99513.13;5044747;28;20036;-66
2022/04/28 08:02:50;;;;;;;26.48;24.20;;;;;;;14.16;69.41;99514.59;5044889;28;20033;-68
2022/04/28 08:05:15;;;;;;;19.35;13.10;;;;;;;14.30;64.50;99516.91;5038433;28;20041;-67
2022/04/28 08:07:40;;;;;;;24.73;22.67;;;;;;;14.31;61.22;99516.84;5043933;28;20025;-65
2022/04/28 08:10:06;;;;;;;15.07;10.20;;;;;;;14.51;61.50;99521.66;5047101;28;20487;-66
2022/04/28 08:12:33;;;;;;;36.90;33.50;;;;;;;14.36;63.25;99509.06;5043019;28;20036;-67
2022/04/28 08:14:58;;;;;;;21.95;19.55;;;;;;;14.27;64.47;99524.69;5040816;28;20160;-67
2022/04/28 08:17:24;;;;;;;62.20;58.20;;;;;;;14.29;63.09;99530.66;5042217;28;20585;-67
2022/04/28 08:19:49;;;;;;;16.00;10.52;;;;;;;14.40;63.51;99515.84;5044978;28;20060;-67
2022/04/28 08:22:15;;;;;;;17.48;10.18;;;;;;;14.72;62.92;99528.97;5044213;28;20489;-67
2022/04/28 08:24:40;;;;;;;20.33;17.50;;;;;;;14.91;61.00;99513.91;5041168;28;20457;-67
2022/04/28 08:27:05;;;;;;;15.27;13.68;;;;;;;14.68;62.09;99532.47;5043072;28;20037;-68
2022/04/28 08:29:31;;;;;;;15.13;9.60;;;;;;;14.74;63.18;99526.31;5045228;28;20037;-67
2022/04/28 08:31:56;;;;;;;20.00;11.68;;;;;;;15.08;64.16;99527.28;5043398;28;20037;-67
2022/04/28 08:34:22;;;;;;;18.00;11.98;;;;;;;15.29;61.80;99526.78;5039815;28;20029;-66
2022/04/28 08:36:49;;;;;;;32.92;30.13;;;;;;;15.39;58.04;99532.59;5043575;28;20477;-68
2022/04/28 08:39:15;;;;;;;32.50;30.05;;;;;;;15.78;55.83;99531.66;5045265;28;20075;-68
2022/04/28 08:41:47;;;;;;;16.63;13.27;;;;;;;15.58;54.30;99528.69;5041563;28;20059;-64
2022/04/28 08:44:18;;;;;;;28.90;26.20;;;;;;;15.71;54.36;99524.06;5039870;28;20063;-68
2022/04/28 08:46:53;;;;;;;21.48;19.65;;;;;;;15.80;53.81;99526.41;5043797;28;20052;-69
2022/04/28 08:49:18;;;;;;;26.40;24.05;;;;;;;16.05;53.37;99534.38;5044101;28;20025;-68
2022/04/28 08:51:44;;;;;;;22.65;16.05;;;;;;;15.78;53.75;99531.66;5041247;28;20498;-67
2022/04/28 08:54:12;;;;;;;16.85;11.52;;;;;;;15.42;54.23;99527.34;5040598;28;20032;-69
2022/04/28 08:56:39;;;;;;;15.45;9.95;;;;;;;15.41;52.71;99531.66;5045393;28;20517;-66
2022/04/28 08:59:05;;;;;;;14.38;12.32;;;;;;;15.33;54.32;99536.16;5044850;28;20044;-68
2022/04/28 09:01:30;;;;;;;17.85;11.13;;;;;;;15.40;56.21;99535.13;5040601;28;20040;-67
2022/04/28 09:03:57;;;;;;;13.90;11.20;;;;;;;15.81;55.41;99541.03;5042183;28;20028;-66
2022/04/28 09:06:29;;;;;;;18.10;8.43;;;;;;;15.70;53.34;99537.91;5044981;28;20387;-67
2022/04/28 09:08:56;;;;;;;21.50;18.27;;;;;;;15.82;50.81;99537.56;5043070;28;20029;-67
2022/04/28 09:11:24;;;;;;;18.45;10.95;;;;;;;16.03;51.93;99542.19;5041570;28;20032;-66
2022/04/28 09:14:09;;;;;;;18.00;16.02;;;;;;;15.93;51.07;99533.81;5032753;28;20057;-67
2022/04/28 09:16:37;;;;;;;14.43;12.25;;;;;;;16.16;51.97;99533.22;5044565;28;20049;-67
2022/04/28 09:19:03;;;;;;;20.17;15.45;;;;;;;16.06;51.51;99536.06;5042918;28;20545;-67
2022/04/28 09:21:32;;;;;;;20.70;15.95;;;;;;;16.16;50.21;99530.63;5039709;28;20550;-68
2022/04/28 09:23:58;;;;;;;19.70;17.30;;;;;;;16.00;49.16;99537.94;5043304;28;20037;-67
2022/04/28 09:26:24;;;;;;;15.73;10.82;;;;;;;16.21;49.24;99536.50;5043953;28;20111;-67
2022/04/28 09:28:53;;;;;;;20.08;16.77;;;;;;;16.48;47.69;99532.31;5042069;28;20033;-66
2022/04/28 09:31:19;;;;;;;23.63;13.52;;;;;;;16.56;46.92;99534.66;5040065;28;20566;-67
2022/04/28 09:33:46;;;;;;;33.30;30.33;;;;;;;16.55;46.43;99531.22;5042661;28;20147;-67
2022/04/28 09:36:13;;;;;;;16.35;14.73;;;;;;;16.76;47.71;99535.00;5044121;28;20485;-67
2022/04/28 09:38:39;;;;;;;33.67;30.88;;;;;;;16.83;47.71;99521.81;5040946;28;20515;-58
2022/04/28 09:43:56;;;;;;;18.48;16.63;;;;;;;17.43;45.48;99528.56;5043790;28;20035;-64
2022/04/28 09:46:25;;;;;;;18.17;10.20;;;;;;;17.27;46.32;99528.19;5044055;28;20049;-64
2022/04/28 09:48:54;;;;;;;512.38;484.08;;;;;;;16.90;44.77;99543.19;5040856;28;20605;-65
2022/04/28 09:51:23;;;;;;;514.72;486.38;;;;;;;16.42;44.54;99532.50;5041560;28;20033;-63
2022/04/28 09:53:51;;;;;;;443.23;419.90;;;;;;;16.49;46.08;99546.97;5044498;28;20090;-63
2022/04/28 09:56:21;;;;;;;489.67;462.55;;;;;;;16.77;45.01;99534.09;5043267;28;20020;-64
2022/04/28 09:58:48;;;;;;;498.95;471.60;;;;;;;17.10;45.79;99535.66;5040294;28;20633;-64
2022/04/28 10:01:15;;;;;;;394.63;374.45;;;;;;;17.29;44.49;99528.16;5040126;28;20340;-63
2022/04/28 10:03:41;;;;;;;382.88;363.48;;;;;;;16.88;44.89;99539.81;5043985;28;20037;-64
2022/04/28 10:06:08;;;;;;;483.23;456.67;;;;;;;16.79;45.46;99532.31;5038774;28;20104;-63
2022/04/28 10:08:34;;;;;;;399.77;378.88;;;;;;;16.61;46.93;99533.69;5037809;28;20574;-65
2022/04/28 10:11:05;;;;;;;408.05;386.88;;;;;;;16.62;47.81;99527.63;5041107;28;20195;-63
2022/04/28 10:13:31;;;;;;;454.77;430.27;;;;;;;16.50;47.15;99522.78;5042370;28;20044;-64
2022/04/28 10:16:05;;;;;;;472.77;446.27;;;;;;;16.97;47.26;99526.59;5038438;28;20053;-65
2022/04/28 10:18:40;;;;;;;476.98;451.08;;;;;;;17.04;47.57;99519.47;5039489;28;20116;-64
2022/04/28 10:21:10;;;;;;;452.38;428.08;;;;;;;17.22;46.03;99526.66;5042003;28;20645;-64
2022/04/28 10:35:01;;;;;;;689.00;646.90;;;;;;;16.20;50.12;99518.44;5039565;28;20451;-62
2022/04/28 10:37:34;;;;;;;640.40;602.50;;;;;;;16.33;48.53;99525.00;5038423;28;20519;-63
2022/04/28 10:40:00;;;;;;;545.35;515.30;;;;;;;16.47;48.18;99528.00;5042110;28;20110;-64
2022/04/28 10:42:25;;;;;;;544.33;513.97;;;;;;;15.96;49.91;99540.63;5041608;28;20131;-61
2022/04/28 10:44:56;;;;;;;598.75;563.80;;;;;;;16.27;50.25;99535.50;5038570;28;20068;-62
2022/04/28 10:47:35;;;;;;;522.15;493.10;;;;;;;16.81;49.99;99541.72;5039217;28;20029;-62
2022/04/28 10:50:01;;;;;;;573.92;541.42;;;;;;;16.08;48.44;99526.56;5042031;28;20045;-62
2022/04/28 10:52:27;;;;;;;677.55;636.72;;;;;;;15.77;49.09;99529.94;5039532;28;20466;-62
2022/04/28 10:54:54;;;;;;;668.70;628.28;;;;;;;15.87;50.01;99520.22;5036567;28;20033;-62
2022/04/28 10:57:29;;;;;;;629.85;593.25;;;;;;;16.09;47.77;99531.66;5039982;28;20041;-63
2022/04/28 10:59:55;;;;;;;606.35;571.30;;;;;;;15.83;47.77;99529.75;5041064;28;20040;-62
2022/04/28 11:02:21;;;;;;;638.45;600.15;;;;;;;15.84;50.24;99544.41;5038829;28;20028;-62
2022/04/28 11:05:20;;;;;;;611.53;575.83;;;;;;;15.78;50.67;99521.31;5037808;28;20075;-62
2022/04/28 11:07:46;;;;;;;562.33;529.63;;;;;;;16.04;48.18;99519.75;5037803;28;20029;-64
2022/04/28 11:10:13;;;;;;;662.03;622.50;;;;;;;16.37;47.08;99511.06;5041498;28;20033;-62
2022/04/28 11:12:43;;;;;;;464.13;438.58;;;;;;;16.41;46.39;99531.66;5038148;28;20670;-63
2022/04/28 11:15:13;;;;;;;480.80;454.50;;;;;;;16.05;46.27;99535.22;5037586;28;20105;-63
2022/04/28 11:17:44;;;;;;;499.30;471.95;;;;;;;16.06;45.91;99520.56;5040844;28;20075;-63
2022/04/28 11:20:14;;;;;;;449.10;424.25;;;;;;;15.98;47.39;99519.03;5041257;28;20112;-64
2022/04/28 11:22:43;;;;;;;459.50;434.35;;;;;;;15.96;47.96;99525.13;5037730;28;20036;-64
2022/04/28 11:25:14;;;;;;;455.40;430.70;;;;;;;15.88;46.92;99527.91;5038914;28;20037;-64
2022/04/28 11:27:40;;;;;;;473.75;447.90;;;;;;;15.89;45.36;99515.84;5038644;28;20380;-64
2022/04/28 11:30:09;;;;;;;465.35;440.10;;;;;;;16.34;44.82;99530.09;5039826;28;20072;-62
2022/04/28 11:32:35;;;;;;;452.77;428.15;;;;;;;16.48;44.59;99521.97;5037495;28;20032;-62
2022/04/28 11:35:01;;;;;;;436.20;413.30;;;;;;;16.75;44.78;99517.75;5040496;28;20035;-61
2022/04/28 11:37:28;;;;;;;505.00;477.02;;;;;;;16.27;45.54;99535.50;5040846;28;20119;-66
2022/04/28 11:39:57;;;;;;;518.58;489.60;;;;;;;16.83;45.44;99510.59;5038245;28;20032;-65
2022/04/28 11:42:26;;;;;;;506.92;479.35;;;;;;;17.26;44.44;99520.50;5038160;28;20499;-65
2022/04/28 11:44:55;;;;;;;497.75;471.00;;;;;;;17.63;42.74;99538.31;5040133;28;20075;-65